الصفحة الرئيسية
METAR-TAF:

METAR-TAF

مطار :

Phillip Goldston

Belize City, بليز

دائرة عرض: 17-32N, خط طول: 088-18W, ارتفاع: 5 متر

مراقبة الطقس الحالي

تاريخ ووقت الإصدار 40 دقيقة قبل الساعة 22:00UTC
ريح 7 عقدة من الشرق
درجة الحرارة 31°درجة مئوية
الرطوبة 71%
ضغط 1011 hPa
الرؤية 10 كم أو أكثر
غيوم متفرقة على ارتفاع 2400 قدم

METAR: MZBZ 242200Z 10007KT 9999 SCT024 31/25 A2986 Q1011 NOSIG

زمن: 16:40 (22:40 UTC)

توقعات

تاريخ ووقت الإصدار 7ساعات و 40 دقيقة قبل الساعة 15:00UTC
التوقعات صالحة من24 الساعة 18 UTC إلى 25 الساعة 18 UTC
ريح 8 عقدة من الشرق
الرؤية 10 كم أو أكثر
غيوم متفرقة على ارتفاع 2200 قدم

TAF: MZBZ 241500Z 2418/2518 10008KT 9999 SCT022

أرصاد الطقس والتوقعات من أكثر من 4000 مطار (تقارير الطقس للمطار METAR والتنبؤ بالطقس بالمطارTAF).

المحطات المتاحة هي النقط الصفراء والحمراء على الخريطة.

حرك المؤشر فوق النقطة لمعرفة اسم المحطة.

ثم انقر لمعرفة أرصاد وتوقعات الطقس.

لتغيير الخارطة: اضغط على الأزرار الخضراء مع رمز الصليب الأسود للتكبير. على الزر الأخضر مع شرطة للتصغير، أو على الأسهم الخضراء للخرائط المجاورة.


METAR-TAF: